sensor_id;sensor_type;location;lat;lon;timestamp;temperature;humidity
7028;DHT22;3555;53.248;10.336;2023-04-25T00:02:21;8.60;99.90
7028;DHT22;3555;53.248;10.336;2023-04-25T00:04:48;8.50;99.90
7028;DHT22;3555;53.248;10.336;2023-04-25T00:07:15;8.50;99.90
7028;DHT22;3555;53.248;10.336;2023-04-25T00:09:43;8.50;1.00
7028;DHT22;3555;53.248;10.336;2023-04-25T00:12:10;8.40;99.90
7028;DHT22;3555;53.248;10.336;2023-04-25T00:14:36;8.40;99.90
7028;DHT22;3555;53.248;10.336;2023-04-25T00:17:03;8.40;99.90
7028;DHT22;3555;53.248;10.336;2023-04-25T00:19:32;8.40;99.90
7028;DHT22;3555;53.248;10.336;2023-04-25T00:22:00;8.40;99.90
7028;DHT22;3555;53.248;10.336;2023-04-25T00:24:27;8.40;99.90
7028;DHT22;3555;53.248;10.336;2023-04-25T00:26:54;8.50;99.90
7028;DHT22;3555;53.248;10.336;2023-04-25T00:29:21;8.50;99.90
7028;DHT22;3555;53.248;10.336;2023-04-25T00:31:47;8.50;99.90
7028;DHT22;3555;53.248;10.336;2023-04-25T00:34:14;8.50;99.90
7028;DHT22;3555;53.248;10.336;2023-04-25T00:36:43;8.60;99.90
7028;DHT22;3555;53.248;10.336;2023-04-25T00:39:09;8.70;99.90
7028;DHT22;3555;53.248;10.336;2023-04-25T00:41:37;8.60;99.90
7028;DHT22;3555;53.248;10.336;2023-04-25T00:44:04;8.70;99.90
7028;DHT22;3555;53.248;10.336;2023-04-25T00:46:32;8.50;99.90
7028;DHT22;3555;53.248;10.336;2023-04-25T00:48:59;8.40;99.90
7028;DHT22;3555;53.248;10.336;2023-04-25T00:51:26;8.50;99.90
7028;DHT22;3555;53.248;10.336;2023-04-25T00:53:54;8.50;99.90
7028;DHT22;3555;53.248;10.336;2023-04-25T00:56:21;8.50;99.90
7028;DHT22;3555;53.248;10.336;2023-04-25T00:58:50;8.40;99.90
7028;DHT22;3555;53.248;10.336;2023-04-25T01:01:20;8.30;99.90
7028;DHT22;3555;53.248;10.336;2023-04-25T01:03:47;8.20;99.90
7028;DHT22;3555;53.248;10.336;2023-04-25T01:06:17;8.30;99.90
7028;DHT22;3555;53.248;10.336;2023-04-25T01:08:44;8.30;99.90
7028;DHT22;3555;53.248;10.336;2023-04-25T01:11:13;8.40;99.90
7028;DHT22;3555;53.248;10.336;2023-04-25T01:13:40;8.30;99.90
7028;DHT22;3555;53.248;10.336;2023-04-25T01:16:07;8.30;99.90
7028;DHT22;3555;53.248;10.336;2023-04-25T01:18:34;8.40;99.90
7028;DHT22;3555;53.248;10.336;2023-04-25T01:21:09;8.30;99.90
7028;DHT22;3555;53.248;10.336;2023-04-25T01:23:36;8.30;99.90
7028;DHT22;3555;53.248;10.336;2023-04-25T01:26:04;8.30;99.90
7028;DHT22;3555;53.248;10.336;2023-04-25T01:28:31;8.30;99.90
7028;DHT22;3555;53.248;10.336;2023-04-25T01:30:59;8.40;99.90
7028;DHT22;3555;53.248;10.336;2023-04-25T01:33:26;8.40;99.90
7028;DHT22;3555;53.248;10.336;2023-04-25T01:35:53;8.50;99.90
7028;DHT22;3555;53.248;10.336;2023-04-25T01:38:21;8.40;99.90
7028;DHT22;3555;53.248;10.336;2023-04-25T01:40:49;8.30;99.90
7028;DHT22;3555;53.248;10.336;2023-04-25T01:43:17;8.40;99.90
7028;DHT22;3555;53.248;10.336;2023-04-25T01:45:44;8.30;99.90
7028;DHT22;3555;53.248;10.336;2023-04-25T01:48:12;8.20;99.90
7028;DHT22;3555;53.248;10.336;2023-04-25T01:50:40;8.30;99.90
7028;DHT22;3555;53.248;10.336;2023-04-25T01:53:09;8.40;99.90
7028;DHT22;3555;53.248;10.336;2023-04-25T01:55:37;8.40;99.90
7028;DHT22;3555;53.248;10.336;2023-04-25T01:58:04;8.30;1.00
7028;DHT22;3555;53.248;10.336;2023-04-25T02:00:34;8.30;1.00
7028;DHT22;3555;53.248;10.336;2023-04-25T02:03:03;8.20;1.00
7028;DHT22;3555;53.248;10.336;2023-04-25T02:05:34;8.30;1.00
7028;DHT22;3555;53.248;10.336;2023-04-25T02:08:02;8.40;1.00
7028;DHT22;3555;53.248;10.336;2023-04-25T02:13:52;8.50;1.00
7028;DHT22;3555;53.248;10.336;2023-04-25T02:16:19;8.50;99.90
7028;DHT22;3555;53.248;10.336;2023-04-25T02:18:46;8.50;1.00
7028;DHT22;3555;53.248;10.336;2023-04-25T02:21:13;8.60;99.90
7028;DHT22;3555;53.248;10.336;2023-04-25T02:23:40;8.60;1.00
7028;DHT22;3555;53.248;10.336;2023-04-25T02:26:07;8.70;1.00
7028;DHT22;3555;53.248;10.336;2023-04-25T02:28:34;8.70;1.00
7028;DHT22;3555;53.248;10.336;2023-04-25T02:31:02;8.60;1.00
7028;DHT22;3555;53.248;10.336;2023-04-25T02:33:29;8.50;91.00
7028;DHT22;3555;53.248;10.336;2023-04-25T02:35:56;8.40;1.00
7028;DHT22;3555;53.248;10.336;2023-04-25T02:38:23;8.50;1.00
7028;DHT22;3555;53.248;10.336;2023-04-25T02:40:50;8.40;99.90
7028;DHT22;3555;53.248;10.336;2023-04-25T02:43:17;8.30;1.00
7028;DHT22;3555;53.248;10.336;2023-04-25T02:45:44;8.30;1.00
7028;DHT22;3555;53.248;10.336;2023-04-25T02:48:12;8.30;1.00
7028;DHT22;3555;53.248;10.336;2023-04-25T02:50:39;8.40;99.90
7028;DHT22;3555;53.248;10.336;2023-04-25T02:53:06;8.40;99.90
7028;DHT22;3555;53.248;10.336;2023-04-25T02:55:33;8.30;99.90
7028;DHT22;3555;53.248;10.336;2023-04-25T02:57:59;8.40;1.00
7028;DHT22;3555;53.248;10.336;2023-04-25T03:00:26;8.40;99.90
7028;DHT22;3555;53.248;10.336;2023-04-25T03:02:53;8.40;95.60
7028;DHT22;3555;53.248;10.336;2023-04-25T03:05:22;8.40;99.90
7028;DHT22;3555;53.248;10.336;2023-04-25T03:07:49;8.20;1.00
7028;DHT22;3555;53.248;10.336;2023-04-25T03:10:16;8.30;99.90
7028;DHT22;3555;53.248;10.336;2023-04-25T03:12:43;8.20;99.90
7028;DHT22;3555;53.248;10.336;2023-04-25T03:15:10;8.20;99.90
7028;DHT22;3555;53.248;10.336;2023-04-25T03:17:36;8.20;1.00
7028;DHT22;3555;53.248;10.336;2023-04-25T03:20:04;8.20;1.00
7028;DHT22;3555;53.248;10.336;2023-04-25T03:22:35;8.10;1.00
7028;DHT22;3555;53.248;10.336;2023-04-25T03:25:02;8.00;1.00
7028;DHT22;3555;53.248;10.336;2023-04-25T03:27:29;7.80;1.00
7028;DHT22;3555;53.248;10.336;2023-04-25T03:29:56;7.80;1.00
7028;DHT22;3555;53.248;10.336;2023-04-25T03:32:23;7.70;15.90
7028;DHT22;3555;53.248;10.336;2023-04-25T03:34:49;7.50;99.90
7028;DHT22;3555;53.248;10.336;2023-04-25T03:37:16;7.70;99.90
7028;DHT22;3555;53.248;10.336;2023-04-25T03:39:44;7.70;1.00
7028;DHT22;3555;53.248;10.336;2023-04-25T03:42:11;7.80;1.00
7028;DHT22;3555;53.248;10.336;2023-04-25T03:44:38;7.90;1.00
7028;DHT22;3555;53.248;10.336;2023-04-25T03:47:05;7.90;1.00
7028;DHT22;3555;53.248;10.336;2023-04-25T03:49:34;7.90;99.90
7028;DHT22;3555;53.248;10.336;2023-04-25T03:52:01;7.90;1.00
7028;DHT22;3555;53.248;10.336;2023-04-25T03:54:28;7.80;1.00
7028;DHT22;3555;53.248;10.336;2023-04-25T03:56:56;7.90;1.00
7028;DHT22;3555;53.248;10.336;2023-04-25T03:59:23;7.80;1.00
7028;DHT22;3555;53.248;10.336;2023-04-25T04:01:50;7.90;1.00
7028;DHT22;3555;53.248;10.336;2023-04-25T04:04:17;7.90;99.90
7028;DHT22;3555;53.248;10.336;2023-04-25T04:06:44;7.90;1.00
7028;DHT22;3555;53.248;10.336;2023-04-25T04:09:11;8.00;99.90
7028;DHT22;3555;53.248;10.336;2023-04-25T04:11:38;8.10;99.90
7028;DHT22;3555;53.248;10.336;2023-04-25T04:14:07;8.00;99.90
7028;DHT22;3555;53.248;10.336;2023-04-25T04:16:35;8.00;99.90
7028;DHT22;3555;53.248;10.336;2023-04-25T04:19:02;7.90;1.00
7028;DHT22;3555;53.248;10.336;2023-04-25T04:21:29;8.00;1.00
7028;DHT22;3555;53.248;10.336;2023-04-25T04:23:57;7.90;1.00
7028;DHT22;3555;53.248;10.336;2023-04-25T04:26:25;7.90;1.00
7028;DHT22;3555;53.248;10.336;2023-04-25T04:28:53;7.90;1.00
7028;DHT22;3555;53.248;10.336;2023-04-25T04:31:21;7.80;1.00
7028;DHT22;3555;53.248;10.336;2023-04-25T04:33:49;7.70;99.90
7028;DHT22;3555;53.248;10.336;2023-04-25T04:36:16;7.70;1.00
7028;DHT22;3555;53.248;10.336;2023-04-25T04:38:45;7.70;1.00
7028;DHT22;3555;53.248;10.336;2023-04-25T04:41:12;7.70;1.00
7028;DHT22;3555;53.248;10.336;2023-04-25T04:43:39;7.50;97.90
7028;DHT22;3555;53.248;10.336;2023-04-25T04:46:06;7.50;1.00
7028;DHT22;3555;53.248;10.336;2023-04-25T04:48:34;7.50;99.90
7028;DHT22;3555;53.248;10.336;2023-04-25T04:51:01;7.50;26.50
7028;DHT22;3555;53.248;10.336;2023-04-25T04:53:28;7.50;1.00
7028;DHT22;3555;53.248;10.336;2023-04-25T04:55:54;7.60;1.00
7028;DHT22;3555;53.248;10.336;2023-04-25T04:58:21;7.60;1.00
7028;DHT22;3555;53.248;10.336;2023-04-25T05:00:48;7.60;99.90
7028;DHT22;3555;53.248;10.336;2023-04-25T05:03:15;7.70;1.00
7028;DHT22;3555;53.248;10.336;2023-04-25T05:05:44;7.70;1.00
7028;DHT22;3555;53.248;10.336;2023-04-25T05:08:11;7.80;1.00
7028;DHT22;3555;53.248;10.336;2023-04-25T05:10:38;7.90;1.00
7028;DHT22;3555;53.248;10.336;2023-04-25T05:13:05;8.10;1.00
7028;DHT22;3555;53.248;10.336;2023-04-25T05:15:31;8.40;1.00
7028;DHT22;3555;53.248;10.336;2023-04-25T05:17:58;8.50;99.90
7028;DHT22;3555;53.248;10.336;2023-04-25T05:20:25;8.70;99.90
7028;DHT22;3555;53.248;10.336;2023-04-25T05:22:54;9.00;70.60
7028;DHT22;3555;53.248;10.336;2023-04-25T05:25:20;9.10;1.00
7028;DHT22;3555;53.248;10.336;2023-04-25T05:27:47;9.20;1.00
7028;DHT22;3555;53.248;10.336;2023-04-25T05:30:14;9.10;1.00
7028;DHT22;3555;53.248;10.336;2023-04-25T05:32:41;9.20;1.00
7028;DHT22;3555;53.248;10.336;2023-04-25T05:35:08;9.30;1.00
7028;DHT22;3555;53.248;10.336;2023-04-25T05:37:35;9.30;99.90
7028;DHT22;3555;53.248;10.336;2023-04-25T05:40:04;9.10;1.00
7028;DHT22;3555;53.248;10.336;2023-04-25T05:42:32;9.30;1.00
7028;DHT22;3555;53.248;10.336;2023-04-25T05:44:59;9.30;1.00
7028;DHT22;3555;53.248;10.336;2023-04-25T05:47:26;9.50;1.00
7028;DHT22;3555;53.248;10.336;2023-04-25T05:49:53;9.40;1.00
7028;DHT22;3555;53.248;10.336;2023-04-25T05:52:20;9.50;1.00
7028;DHT22;3555;53.248;10.336;2023-04-25T05:54:46;9.50;99.90
7028;DHT22;3555;53.248;10.336;2023-04-25T05:57:21;9.20;99.90
7028;DHT22;3555;53.248;10.336;2023-04-25T05:59:48;9.10;1.00
7028;DHT22;3555;53.248;10.336;2023-04-25T06:02:15;9.10;1.00
7028;DHT22;3555;53.248;10.336;2023-04-25T06:04:42;9.10;1.00
7028;DHT22;3555;53.248;10.336;2023-04-25T06:07:09;9.10;1.00
7028;DHT22;3555;53.248;10.336;2023-04-25T06:09:35;8.90;1.00
7028;DHT22;3555;53.248;10.336;2023-04-25T06:12:04;8.90;1.00
7028;DHT22;3555;53.248;10.336;2023-04-25T06:14:33;8.80;1.00
7028;DHT22;3555;53.248;10.336;2023-04-25T06:17:00;9.10;99.90
7028;DHT22;3555;53.248;10.336;2023-04-25T06:19:31;8.70;1.00
7028;DHT22;3555;53.248;10.336;2023-04-25T06:21:58;8.70;1.00
7028;DHT22;3555;53.248;10.336;2023-04-25T06:24:25;8.70;1.00
7028;DHT22;3555;53.248;10.336;2023-04-25T06:26:52;8.70;1.00
7028;DHT22;3555;53.248;10.336;2023-04-25T06:29:19;8.60;1.00
7028;DHT22;3555;53.248;10.336;2023-04-25T06:31:47;8.50;1.00
7028;DHT22;3555;53.248;10.336;2023-04-25T06:34:15;8.60;1.00
7028;DHT22;3555;53.248;10.336;2023-04-25T06:36:42;8.70;1.00
7028;DHT22;3555;53.248;10.336;2023-04-25T06:39:10;8.60;1.00
7028;DHT22;3555;53.248;10.336;2023-04-25T06:41:37;8.70;1.00
7028;DHT22;3555;53.248;10.336;2023-04-25T06:44:03;8.80;1.00
7028;DHT22;3555;53.248;10.336;2023-04-25T06:46:30;8.80;1.00
7028;DHT22;3555;53.248;10.336;2023-04-25T06:48:58;8.70;1.00
7028;DHT22;3555;53.248;10.336;2023-04-25T06:51:25;8.50;1.00
7028;DHT22;3555;53.248;10.336;2023-04-25T06:53:54;8.40;1.00
7028;DHT22;3555;53.248;10.336;2023-04-25T06:56:21;8.50;1.00
7028;DHT22;3555;53.248;10.336;2023-04-25T06:58:48;8.60;1.00
7028;DHT22;3555;53.248;10.336;2023-04-25T07:01:15;8.70;1.00
7028;DHT22;3555;53.248;10.336;2023-04-25T07:03:42;8.80;1.00
7028;DHT22;3555;53.248;10.336;2023-04-25T07:06:10;8.80;1.00
7028;DHT22;3555;53.248;10.336;2023-04-25T07:08:37;8.80;1.00
7028;DHT22;3555;53.248;10.336;2023-04-25T07:11:04;8.80;1.00
7028;DHT22;3555;53.248;10.336;2023-04-25T07:13:31;8.60;1.00
7028;DHT22;3555;53.248;10.336;2023-04-25T07:15:58;8.70;1.00
7028;DHT22;3555;53.248;10.336;2023-04-25T07:18:25;8.70;1.00
7028;DHT22;3555;53.248;10.336;2023-04-25T07:20:52;8.80;1.00
7028;DHT22;3555;53.248;10.336;2023-04-25T07:23:20;8.70;1.00
7028;DHT22;3555;53.248;10.336;2023-04-25T07:25:48;8.70;1.00
7028;DHT22;3555;53.248;10.336;2023-04-25T07:28:15;8.70;1.00
7028;DHT22;3555;53.248;10.336;2023-04-25T07:30:42;8.90;1.00
7028;DHT22;3555;53.248;10.336;2023-04-25T07:33:09;8.90;1.00
7028;DHT22;3555;53.248;10.336;2023-04-25T07:35:36;8.70;1.00
7028;DHT22;3555;53.248;10.336;2023-04-25T07:38:03;8.80;1.00
7028;DHT22;3555;53.248;10.336;2023-04-25T07:40:33;8.80;1.00
7028;DHT22;3555;53.248;10.336;2023-04-25T07:43:00;9.00;1.00
7028;DHT22;3555;53.248;10.336;2023-04-25T07:45:27;9.10;1.00
7028;DHT22;3555;53.248;10.336;2023-04-25T07:47:54;9.40;1.00
7028;DHT22;3555;53.248;10.336;2023-04-25T07:50:21;9.50;99.90
7028;DHT22;3555;53.248;10.336;2023-04-25T07:52:48;9.60;99.90
7028;DHT22;3555;53.248;10.336;2023-04-25T07:55:15;9.60;99.90
7028;DHT22;3555;53.248;10.336;2023-04-25T07:57:43;9.70;99.90
7028;DHT22;3555;53.248;10.336;2023-04-25T08:00:11;8.90;99.90
7028;DHT22;3555;53.248;10.336;2023-04-25T08:02:38;9.60;99.90
7028;DHT22;3555;53.248;10.336;2023-04-25T08:05:05;10.20;99.90
7028;DHT22;3555;53.248;10.336;2023-04-25T08:07:33;9.60;99.90
7028;DHT22;3555;53.248;10.336;2023-04-25T08:10:00;9.50;99.90
7028;DHT22;3555;53.248;10.336;2023-04-25T08:12:28;9.60;99.90
7028;DHT22;3555;53.248;10.336;2023-04-25T08:14:56;9.80;99.90
7028;DHT22;3555;53.248;10.336;2023-04-25T08:17:23;10.10;99.90
7028;DHT22;3555;53.248;10.336;2023-04-25T08:19:50;10.40;99.90
7028;DHT22;3555;53.248;10.336;2023-04-25T08:22:17;10.30;99.90
7028;DHT22;3555;53.248;10.336;2023-04-25T08:24:44;10.10;99.90
7028;DHT22;3555;53.248;10.336;2023-04-25T08:27:11;10.20;99.90
7028;DHT22;3555;53.248;10.336;2023-04-25T08:29:37;10.30;99.90
7028;DHT22;3555;53.248;10.336;2023-04-25T08:32:06;10.40;99.90
7028;DHT22;3555;53.248;10.336;2023-04-25T08:34:33;10.30;99.90
7028;DHT22;3555;53.248;10.336;2023-04-25T08:36:59;10.10;99.90
7028;DHT22;3555;53.248;10.336;2023-04-25T08:39:26;10.20;99.90
7028;DHT22;3555;53.248;10.336;2023-04-25T08:41:53;10.20;99.90
7028;DHT22;3555;53.248;10.336;2023-04-25T08:44:21;10.40;99.90
7028;DHT22;3555;53.248;10.336;2023-04-25T08:46:49;10.50;78.80
7028;DHT22;3555;53.248;10.336;2023-04-25T08:49:17;10.30;99.90
7028;DHT22;3555;53.248;10.336;2023-04-25T08:51:46;10.60;99.90
7028;DHT22;3555;53.248;10.336;2023-04-25T08:54:14;10.90;99.90
7028;DHT22;3555;53.248;10.336;2023-04-25T08:56:44;11.20;39.90
7028;DHT22;3555;53.248;10.336;2023-04-25T08:59:12;11.30;1.00
7028;DHT22;3555;53.248;10.336;2023-04-25T09:01:39;11.60;1.00
7028;DHT22;3555;53.248;10.336;2023-04-25T09:04:06;11.90;1.00
7028;DHT22;3555;53.248;10.336;2023-04-25T09:06:35;12.20;1.00
7028;DHT22;3555;53.248;10.336;2023-04-25T09:09:03;12.40;1.00
7028;DHT22;3555;53.248;10.336;2023-04-25T09:11:31;12.50;1.00
7028;DHT22;3555;53.248;10.336;2023-04-25T09:14:15;11.80;1.00
7028;DHT22;3555;53.248;10.336;2023-04-25T09:17:02;11.90;1.00
7028;DHT22;3555;53.248;10.336;2023-04-25T09:19:30;11.80;1.00
7028;DHT22;3555;53.248;10.336;2023-04-25T09:22:01;11.80;1.00
7028;DHT22;3555;53.248;10.336;2023-04-25T09:24:36;11.50;1.00
7028;DHT22;3555;53.248;10.336;2023-04-25T09:27:04;11.40;1.00
7028;DHT22;3555;53.248;10.336;2023-04-25T09:29:31;11.40;1.00
7028;DHT22;3555;53.248;10.336;2023-04-25T09:32:16;11.10;1.00
7028;DHT22;3555;53.248;10.336;2023-04-25T09:34:46;11.00;1.00
7028;DHT22;3555;53.248;10.336;2023-04-25T09:37:19;11.20;30.80
7028;DHT22;3555;53.248;10.336;2023-04-25T09:39:47;11.40;1.00
7028;DHT22;3555;53.248;10.336;2023-04-25T09:42:15;11.60;1.00
7028;DHT22;3555;53.248;10.336;2023-04-25T09:44:43;11.50;1.00
7028;DHT22;3555;53.248;10.336;2023-04-25T09:47:11;11.20;1.00
7028;DHT22;3555;53.248;10.336;2023-04-25T09:49:40;11.30;1.00
7028;DHT22;3555;53.248;10.336;2023-04-25T09:52:09;11.50;1.00
7028;DHT22;3555;53.248;10.336;2023-04-25T09:54:37;11.40;1.00
7028;DHT22;3555;53.248;10.336;2023-04-25T09:57:10;11.30;1.00
7028;DHT22;3555;53.248;10.336;2023-04-25T09:59:39;11.30;1.00
7028;DHT22;3555;53.248;10.336;2023-04-25T10:02:09;11.40;15.90
7028;DHT22;3555;53.248;10.336;2023-04-25T10:04:37;11.40;39.80
7028;DHT22;3555;53.248;10.336;2023-04-25T10:07:06;11.50;12.80
7028;DHT22;3555;53.248;10.336;2023-04-25T10:09:35;11.20;3.20
7028;DHT22;3555;53.248;10.336;2023-04-25T10:12:05;11.30;26.10
7028;DHT22;3555;53.248;10.336;2023-04-25T10:14:32;10.70;99.90
7028;DHT22;3555;53.248;10.336;2023-04-25T10:16:59;10.40;99.90
7028;DHT22;3555;53.248;10.336;2023-04-25T10:19:27;10.50;99.90
7028;DHT22;3555;53.248;10.336;2023-04-25T10:22:02;10.70;99.90
7028;DHT22;3555;53.248;10.336;2023-04-25T10:24:30;11.00;99.90
7028;DHT22;3555;53.248;10.336;2023-04-25T10:26:57;11.30;99.90
7028;DHT22;3555;53.248;10.336;2023-04-25T10:29:26;11.40;69.70
7028;DHT22;3555;53.248;10.336;2023-04-25T10:31:53;11.20;67.30
7028;DHT22;3555;53.248;10.336;2023-04-25T10:34:24;11.00;99.90
7028;DHT22;3555;53.248;10.336;2023-04-25T10:36:53;10.90;99.90
7028;DHT22;3555;53.248;10.336;2023-04-25T10:39:26;10.90;99.90
7028;DHT22;3555;53.248;10.336;2023-04-25T10:41:55;10.90;99.90
7028;DHT22;3555;53.248;10.336;2023-04-25T10:44:23;11.00;99.90
7028;DHT22;3555;53.248;10.336;2023-04-25T10:46:55;11.00;99.90
7028;DHT22;3555;53.248;10.336;2023-04-25T10:49:41;11.10;99.90
7028;DHT22;3555;53.248;10.336;2023-04-25T10:52:16;11.60;99.90
7028;DHT22;3555;53.248;10.336;2023-04-25T10:54:46;12.00;17.00
7028;DHT22;3555;53.248;10.336;2023-04-25T10:57:30;12.10;1.00
7028;DHT22;3555;53.248;10.336;2023-04-25T11:00:05;12.10;1.00
7028;DHT22;3555;53.248;10.336;2023-04-25T11:02:37;12.10;1.00
7028;DHT22;3555;53.248;10.336;2023-04-25T11:05:05;12.30;1.00
7028;DHT22;3555;53.248;10.336;2023-04-25T11:07:37;12.60;1.00
7028;DHT22;3555;53.248;10.336;2023-04-25T11:10:05;12.70;1.00
7028;DHT22;3555;53.248;10.336;2023-04-25T11:12:33;13.10;1.00
7028;DHT22;3555;53.248;10.336;2023-04-25T11:15:02;13.30;1.00
7028;DHT22;3555;53.248;10.336;2023-04-25T11:17:29;13.40;1.00
7028;DHT22;3555;53.248;10.336;2023-04-25T11:19:57;13.60;1.00
7028;DHT22;3555;53.248;10.336;2023-04-25T11:22:25;13.80;1.00
7028;DHT22;3555;53.248;10.336;2023-04-25T11:24:52;14.00;1.00
7028;DHT22;3555;53.248;10.336;2023-04-25T11:27:21;14.10;1.00
7028;DHT22;3555;53.248;10.336;2023-04-25T11:29:50;13.90;1.00
7028;DHT22;3555;53.248;10.336;2023-04-25T11:32:18;13.70;1.00
7028;DHT22;3555;53.248;10.336;2023-04-25T11:34:46;13.60;1.00
7028;DHT22;3555;53.248;10.336;2023-04-25T11:37:15;13.30;1.00
7028;DHT22;3555;53.248;10.336;2023-04-25T11:39:45;12.40;38.00
7028;DHT22;3555;53.248;10.336;2023-04-25T11:42:12;11.80;99.90
7028;DHT22;3555;53.248;10.336;2023-04-25T11:44:39;11.60;99.90
7028;DHT22;3555;53.248;10.336;2023-04-25T11:47:07;11.50;99.90
7028;DHT22;3555;53.248;10.336;2023-04-25T11:49:35;11.20;99.90
7028;DHT22;3555;53.248;10.336;2023-04-25T11:52:02;11.20;1.00
7028;DHT22;3555;53.248;10.336;2023-04-25T11:54:30;11.30;99.90
7028;DHT22;3555;53.248;10.336;2023-04-25T11:56:57;11.50;99.90
7028;DHT22;3555;53.248;10.336;2023-04-25T11:59:25;11.70;99.90
7028;DHT22;3555;53.248;10.336;2023-04-25T12:01:53;11.70;99.90
7028;DHT22;3555;53.248;10.336;2023-04-25T12:04:22;11.70;1.00
7028;DHT22;3555;53.248;10.336;2023-04-25T12:06:50;11.50;1.00
7028;DHT22;3555;53.248;10.336;2023-04-25T12:09:19;11.60;12.50
7028;DHT22;3555;53.248;10.336;2023-04-25T12:11:49;11.80;33.00
7028;DHT22;3555;53.248;10.336;2023-04-25T12:14:24;11.90;3.70
7028;DHT22;3555;53.248;10.336;2023-04-25T12:16:54;12.10;1.00
7028;DHT22;3555;53.248;10.336;2023-04-25T12:19:22;12.10;1.00
7028;DHT22;3555;53.248;10.336;2023-04-25T12:21:50;12.30;1.00
7028;DHT22;3555;53.248;10.336;2023-04-25T12:24:21;12.40;1.00
7028;DHT22;3555;53.248;10.336;2023-04-25T12:26:52;12.40;1.00
7028;DHT22;3555;53.248;10.336;2023-04-25T12:29:21;12.50;1.00
7028;DHT22;3555;53.248;10.336;2023-04-25T12:31:49;12.40;1.00
7028;DHT22;3555;53.248;10.336;2023-04-25T12:34:17;12.70;1.00
7028;DHT22;3555;53.248;10.336;2023-04-25T12:36:43;13.00;1.00
7028;DHT22;3555;53.248;10.336;2023-04-25T12:39:15;13.10;1.00
7028;DHT22;3555;53.248;10.336;2023-04-25T12:41:42;13.00;1.00
7028;DHT22;3555;53.248;10.336;2023-04-25T12:44:10;13.00;1.00
7028;DHT22;3555;53.248;10.336;2023-04-25T12:46:37;13.00;1.00
7028;DHT22;3555;53.248;10.336;2023-04-25T12:49:05;13.00;1.00
7028;DHT22;3555;53.248;10.336;2023-04-25T12:51:33;12.80;1.00
7028;DHT22;3555;53.248;10.336;2023-04-25T12:54:00;12.50;1.00
7028;DHT22;3555;53.248;10.336;2023-04-25T12:56:27;12.50;1.00
7028;DHT22;3555;53.248;10.336;2023-04-25T12:58:54;12.30;1.00
7028;DHT22;3555;53.248;10.336;2023-04-25T13:01:23;11.90;1.00
7028;DHT22;3555;53.248;10.336;2023-04-25T13:03:50;11.90;1.00
7028;DHT22;3555;53.248;10.336;2023-04-25T13:06:18;12.20;1.00
7028;DHT22;3555;53.248;10.336;2023-04-25T13:08:44;12.40;1.00
7028;DHT22;3555;53.248;10.336;2023-04-25T13:11:11;12.60;1.00
7028;DHT22;3555;53.248;10.336;2023-04-25T13:13:40;12.70;1.00
7028;DHT22;3555;53.248;10.336;2023-04-25T13:16:08;12.80;1.00
7028;DHT22;3555;53.248;10.336;2023-04-25T13:18:36;12.60;1.00
7028;DHT22;3555;53.248;10.336;2023-04-25T13:21:03;12.60;1.00
7028;DHT22;3555;53.248;10.336;2023-04-25T13:23:30;12.20;1.00
7028;DHT22;3555;53.248;10.336;2023-04-25T13:25:57;11.90;1.00
7028;DHT22;3555;53.248;10.336;2023-04-25T13:28:24;11.60;1.00
7028;DHT22;3555;53.248;10.336;2023-04-25T13:30:51;11.60;1.00
7028;DHT22;3555;53.248;10.336;2023-04-25T13:33:18;11.70;1.00
7028;DHT22;3555;53.248;10.336;2023-04-25T13:35:47;11.80;1.00
7028;DHT22;3555;53.248;10.336;2023-04-25T13:38:20;11.60;1.00
7028;DHT22;3555;53.248;10.336;2023-04-25T13:40:47;11.70;1.00
7028;DHT22;3555;53.248;10.336;2023-04-25T13:43:14;11.70;1.00
7028;DHT22;3555;53.248;10.336;2023-04-25T13:45:41;11.80;1.00
7028;DHT22;3555;53.248;10.336;2023-04-25T13:48:07;11.70;1.00
7028;DHT22;3555;53.248;10.336;2023-04-25T13:50:34;11.80;1.00
7028;DHT22;3555;53.248;10.336;2023-04-25T13:53:03;11.90;1.00
7028;DHT22;3555;53.248;10.336;2023-04-25T13:55:30;12.00;1.00
7028;DHT22;3555;53.248;10.336;2023-04-25T13:57:56;12.00;1.00
7028;DHT22;3555;53.248;10.336;2023-04-25T14:00:23;12.00;1.00
7028;DHT22;3555;53.248;10.336;2023-04-25T14:02:50;12.20;1.00
7028;DHT22;3555;53.248;10.336;2023-04-25T14:05:17;12.30;1.00
7028;DHT22;3555;53.248;10.336;2023-04-25T14:07:44;12.50;1.00
7028;DHT22;3555;53.248;10.336;2023-04-25T14:10:12;12.70;1.00
7028;DHT22;3555;53.248;10.336;2023-04-25T14:12:39;12.70;1.00
7028;DHT22;3555;53.248;10.336;2023-04-25T14:15:06;12.90;1.00
7028;DHT22;3555;53.248;10.336;2023-04-25T14:17:33;13.10;1.00
7028;DHT22;3555;53.248;10.336;2023-04-25T14:20:00;13.10;1.00
7028;DHT22;3555;53.248;10.336;2023-04-25T14:22:27;13.20;1.00
7028;DHT22;3555;53.248;10.336;2023-04-25T14:24:54;13.10;1.00
7028;DHT22;3555;53.248;10.336;2023-04-25T14:27:22;13.00;1.00
7028;DHT22;3555;53.248;10.336;2023-04-25T14:29:49;12.80;1.00
7028;DHT22;3555;53.248;10.336;2023-04-25T14:32:16;12.40;1.00
7028;DHT22;3555;53.248;10.336;2023-04-25T14:34:42;12.20;55.40
7028;DHT22;3555;53.248;10.336;2023-04-25T14:37:09;12.10;99.90
7028;DHT22;3555;53.248;10.336;2023-04-25T14:39:36;12.10;99.90
7028;DHT22;3555;53.248;10.336;2023-04-25T14:42:03;12.20;99.90
7028;DHT22;3555;53.248;10.336;2023-04-25T14:44:31;12.20;99.90
7028;DHT22;3555;53.248;10.336;2023-04-25T14:46:58;12.30;4.50
7028;DHT22;3555;53.248;10.336;2023-04-25T14:49:25;12.20;1.00
7028;DHT22;3555;53.248;10.336;2023-04-25T14:51:53;12.30;1.00
7028;DHT22;3555;53.248;10.336;2023-04-25T14:54:20;12.50;1.00
7028;DHT22;3555;53.248;10.336;2023-04-25T14:56:47;12.60;1.00
7028;DHT22;3555;53.248;10.336;2023-04-25T14:59:14;12.70;1.00
7028;DHT22;3555;53.248;10.336;2023-04-25T15:01:42;12.70;1.00
7028;DHT22;3555;53.248;10.336;2023-04-25T15:04:09;13.20;1.00
7028;DHT22;3555;53.248;10.336;2023-04-25T15:06:37;13.00;1.00
7028;DHT22;3555;53.248;10.336;2023-04-25T15:09:04;13.10;1.00
7028;DHT22;3555;53.248;10.336;2023-04-25T15:11:31;12.80;1.00
7028;DHT22;3555;53.248;10.336;2023-04-25T15:13:58;12.70;1.00
7028;DHT22;3555;53.248;10.336;2023-04-25T15:16:25;12.80;1.00
7028;DHT22;3555;53.248;10.336;2023-04-25T15:18:54;12.70;1.00
7028;DHT22;3555;53.248;10.336;2023-04-25T15:21:20;12.70;1.00
7028;DHT22;3555;53.248;10.336;2023-04-25T15:23:48;12.60;1.00
7028;DHT22;3555;53.248;10.336;2023-04-25T15:26:15;12.50;1.00
7028;DHT22;3555;53.248;10.336;2023-04-25T15:28:42;12.60;1.00
7028;DHT22;3555;53.248;10.336;2023-04-25T15:31:09;12.60;1.00
7028;DHT22;3555;53.248;10.336;2023-04-25T15:33:36;12.40;1.00
7028;DHT22;3555;53.248;10.336;2023-04-25T15:36:05;12.60;1.00
7028;DHT22;3555;53.248;10.336;2023-04-25T15:38:32;12.50;1.00
7028;DHT22;3555;53.248;10.336;2023-04-25T15:40:59;12.50;1.00
7028;DHT22;3555;53.248;10.336;2023-04-25T15:43:26;11.90;1.00
7028;DHT22;3555;53.248;10.336;2023-04-25T15:45:52;12.30;1.00
7028;DHT22;3555;53.248;10.336;2023-04-25T15:48:20;12.30;1.00
7028;DHT22;3555;53.248;10.336;2023-04-25T15:50:47;12.30;1.00
7028;DHT22;3555;53.248;10.336;2023-04-25T15:53:15;12.20;1.00
7028;DHT22;3555;53.248;10.336;2023-04-25T15:55:42;12.20;1.00
7028;DHT22;3555;53.248;10.336;2023-04-25T15:58:09;12.20;1.00
7028;DHT22;3555;53.248;10.336;2023-04-25T16:00:36;12.30;1.00
7028;DHT22;3555;53.248;10.336;2023-04-25T16:03:04;12.10;1.00
7028;DHT22;3555;53.248;10.336;2023-04-25T16:05:32;11.80;1.00
7028;DHT22;3555;53.248;10.336;2023-04-25T16:07:58;11.90;1.00
7028;DHT22;3555;53.248;10.336;2023-04-25T16:10:27;11.90;1.00
7028;DHT22;3555;53.248;10.336;2023-04-25T16:12:54;11.80;1.00